sensor_id;sensor_type;location;lat;lon;timestamp;P1;durP1;ratioP1;P2;durP2;ratioP2
1747;SDS011;871;47.034;15.394;2022-12-07T05:02:31;52.90;;;11.07;;
1747;SDS011;871;47.034;15.394;2022-12-07T05:04:57;49.83;;;8.63;;
1747;SDS011;871;47.034;15.394;2022-12-07T05:07:23;50.20;;;9.68;;
1747;SDS011;871;47.034;15.394;2022-12-07T05:09:49;75.33;;;10.50;;
1747;SDS011;871;47.034;15.394;2022-12-07T05:12:15;50.73;;;9.67;;
1747;SDS011;871;47.034;15.394;2022-12-07T05:14:41;40.05;;;9.27;;
1747;SDS011;871;47.034;15.394;2022-12-07T05:17:07;65.72;;;10.80;;
1747;SDS011;871;47.034;15.394;2022-12-07T05:19:33;61.13;;;10.95;;
1747;SDS011;871;47.034;15.394;2022-12-07T05:21:59;75.57;;;11.25;;
1747;SDS011;871;47.034;15.394;2022-12-07T05:24:25;64.83;;;9.97;;
1747;SDS011;871;47.034;15.394;2022-12-07T05:26:51;73.33;;;12.47;;
1747;SDS011;871;47.034;15.394;2022-12-07T05:29:17;62.22;;;10.52;;
1747;SDS011;871;47.034;15.394;2022-12-07T05:31:43;76.60;;;10.65;;
1747;SDS011;871;47.034;15.394;2022-12-07T05:34:10;36.15;;;8.85;;
1747;SDS011;871;47.034;15.394;2022-12-07T05:36:36;90.82;;;10.93;;
1747;SDS011;871;47.034;15.394;2022-12-07T05:39:02;100.35;;;13.02;;
1747;SDS011;871;47.034;15.394;2022-12-07T05:41:29;63.75;;;11.13;;
1747;SDS011;871;47.034;15.394;2022-12-07T05:44:13;47.50;;;11.38;;
1747;SDS011;871;47.034;15.394;2022-12-07T05:46:39;90.85;;;13.05;;
1747;SDS011;871;47.034;15.394;2022-12-07T05:49:05;69.50;;;11.23;;
1747;SDS011;871;47.034;15.394;2022-12-07T05:51:31;54.17;;;11.80;;
1747;SDS011;871;47.034;15.394;2022-12-07T05:53:58;68.63;;;11.40;;
1747;SDS011;871;47.034;15.394;2022-12-07T05:56:24;117.53;;;14.25;;
1747;SDS011;871;47.034;15.394;2022-12-07T05:58:51;61.58;;;11.63;;
1747;SDS011;871;47.034;15.394;2022-12-07T06:01:37;75.90;;;12.50;;
1747;SDS011;871;47.034;15.394;2022-12-07T06:04:03;54.47;;;11.05;;
1747;SDS011;871;47.034;15.394;2022-12-07T06:06:29;70.97;;;10.70;;
1747;SDS011;871;47.034;15.394;2022-12-07T06:08:55;57.40;;;11.05;;
1747;SDS011;871;47.034;15.394;2022-12-07T06:11:22;56.13;;;12.85;;
1747;SDS011;871;47.034;15.394;2022-12-07T06:14:07;67.82;;;11.50;;
1747;SDS011;871;47.034;15.394;2022-12-07T06:16:33;56.20;;;11.30;;
1747;SDS011;871;47.034;15.394;2022-12-07T06:18:59;61.80;;;12.35;;
1747;SDS011;871;47.034;15.394;2022-12-07T06:21:25;62.22;;;11.60;;
1747;SDS011;871;47.034;15.394;2022-12-07T06:23:51;84.85;;;10.48;;
1747;SDS011;871;47.034;15.394;2022-12-07T06:26:17;91.05;;;13.05;;
1747;SDS011;871;47.034;15.394;2022-12-07T06:28:43;93.45;;;14.52;;
1747;SDS011;871;47.034;15.394;2022-12-07T06:31:09;67.30;;;14.30;;
1747;SDS011;871;47.034;15.394;2022-12-07T06:33:36;148.23;;;14.48;;
1747;SDS011;871;47.034;15.394;2022-12-07T06:36:02;79.68;;;14.75;;
1747;SDS011;871;47.034;15.394;2022-12-07T06:38:28;67.07;;;12.95;;
1747;SDS011;871;47.034;15.394;2022-12-07T06:40:54;72.43;;;15.27;;
1747;SDS011;871;47.034;15.394;2022-12-07T06:43:20;69.75;;;13.40;;
1747;SDS011;871;47.034;15.394;2022-12-07T06:45:46;52.63;;;12.38;;
1747;SDS011;871;47.034;15.394;2022-12-07T06:48:12;69.85;;;12.70;;
1747;SDS011;871;47.034;15.394;2022-12-07T06:50:39;70.80;;;12.65;;
1747;SDS011;871;47.034;15.394;2022-12-07T06:53:05;61.10;;;14.48;;
1747;SDS011;871;47.034;15.394;2022-12-07T06:55:31;96.55;;;13.80;;
1747;SDS011;871;47.034;15.394;2022-12-07T06:57:57;62.35;;;11.90;;
1747;SDS011;871;47.034;15.394;2022-12-07T07:00:23;62.08;;;10.57;;
1747;SDS011;871;47.034;15.394;2022-12-07T07:02:49;96.85;;;13.38;;
1747;SDS011;871;47.034;15.394;2022-12-07T07:05:15;71.22;;;14.15;;
1747;SDS011;871;47.034;15.394;2022-12-07T07:07:41;63.33;;;11.77;;
1747;SDS011;871;47.034;15.394;2022-12-07T07:10:07;74.82;;;12.48;;
1747;SDS011;871;47.034;15.394;2022-12-07T07:12:33;60.60;;;13.00;;
1747;SDS011;871;47.034;15.394;2022-12-07T07:14:59;60.47;;;12.90;;
1747;SDS011;871;47.034;15.394;2022-12-07T07:17:25;61.00;;;13.13;;
1747;SDS011;871;47.034;15.394;2022-12-07T07:19:51;58.20;;;14.47;;
1747;SDS011;871;47.034;15.394;2022-12-07T07:22:17;73.78;;;10.90;;
1747;SDS011;871;47.034;15.394;2022-12-07T07:24:43;80.85;;;13.15;;
1747;SDS011;871;47.034;15.394;2022-12-07T07:27:09;80.43;;;14.23;;
1747;SDS011;871;47.034;15.394;2022-12-07T07:29:35;72.32;;;14.60;;
1747;SDS011;871;47.034;15.394;2022-12-07T07:32:02;51.58;;;12.80;;
1747;SDS011;871;47.034;15.394;2022-12-07T07:34:28;56.15;;;13.82;;
1747;SDS011;871;47.034;15.394;2022-12-07T07:36:54;83.93;;;12.90;;
1747;SDS011;871;47.034;15.394;2022-12-07T07:39:20;65.63;;;15.20;;
1747;SDS011;871;47.034;15.394;2022-12-07T07:41:46;60.50;;;11.93;;
1747;SDS011;871;47.034;15.394;2022-12-07T07:44:12;71.60;;;13.43;;
1747;SDS011;871;47.034;15.394;2022-12-07T07:46:38;64.93;;;13.88;;
1747;SDS011;871;47.034;15.394;2022-12-07T07:49:04;61.67;;;13.07;;
1747;SDS011;871;47.034;15.394;2022-12-07T07:51:30;67.33;;;14.27;;
1747;SDS011;871;47.034;15.394;2022-12-07T07:53:56;69.18;;;13.57;;
1747;SDS011;871;47.034;15.394;2022-12-07T07:56:22;98.57;;;16.02;;
1747;SDS011;871;47.034;15.394;2022-12-07T07:58:51;81.13;;;14.83;;
1747;SDS011;871;47.034;15.394;2022-12-07T08:01:17;67.47;;;15.70;;
1747;SDS011;871;47.034;15.394;2022-12-07T08:03:44;86.07;;;17.33;;
1747;SDS011;871;47.034;15.394;2022-12-07T08:06:10;54.95;;;13.82;;
1747;SDS011;871;47.034;15.394;2022-12-07T08:08:36;61.20;;;13.50;;
1747;SDS011;871;47.034;15.394;2022-12-07T08:11:06;79.87;;;14.10;;
1747;SDS011;871;47.034;15.394;2022-12-07T08:13:32;71.18;;;16.15;;
1747;SDS011;871;47.034;15.394;2022-12-07T08:15:58;74.53;;;16.02;;
1747;SDS011;871;47.034;15.394;2022-12-07T08:18:28;67.22;;;15.18;;
1747;SDS011;871;47.034;15.394;2022-12-07T08:21:00;59.57;;;13.63;;
1747;SDS011;871;47.034;15.394;2022-12-07T08:23:27;71.25;;;16.30;;
1747;SDS011;871;47.034;15.394;2022-12-07T08:25:53;74.15;;;16.60;;
1747;SDS011;871;47.034;15.394;2022-12-07T08:28:19;67.93;;;16.90;;
1747;SDS011;871;47.034;15.394;2022-12-07T08:30:45;71.57;;;17.43;;
1747;SDS011;871;47.034;15.394;2022-12-07T08:33:11;68.13;;;16.20;;
1747;SDS011;871;47.034;15.394;2022-12-07T08:35:37;63.20;;;16.63;;
1747;SDS011;871;47.034;15.394;2022-12-07T08:38:03;70.93;;;18.40;;
1747;SDS011;871;47.034;15.394;2022-12-07T08:40:29;78.22;;;19.50;;
1747;SDS011;871;47.034;15.394;2022-12-07T08:42:55;74.43;;;17.58;;
1747;SDS011;871;47.034;15.394;2022-12-07T08:45:21;73.22;;;18.45;;
1747;SDS011;871;47.034;15.394;2022-12-07T08:47:52;64.22;;;17.23;;
1747;SDS011;871;47.034;15.394;2022-12-07T08:50:20;68.38;;;17.77;;
1747;SDS011;871;47.034;15.394;2022-12-07T08:52:48;77.63;;;19.58;;
1747;SDS011;871;47.034;15.394;2022-12-07T08:55:15;69.68;;;17.55;;
1747;SDS011;871;47.034;15.394;2022-12-07T08:57:41;64.40;;;15.73;;
1747;SDS011;871;47.034;15.394;2022-12-07T09:00:08;63.65;;;16.20;;
1747;SDS011;871;47.034;15.394;2022-12-07T09:02:34;68.32;;;18.65;;
1747;SDS011;871;47.034;15.394;2022-12-07T09:05:00;66.97;;;17.10;;
1747;SDS011;871;47.034;15.394;2022-12-07T09:07:26;72.30;;;16.50;;
1747;SDS011;871;47.034;15.394;2022-12-07T09:09:53;76.68;;;18.55;;
1747;SDS011;871;47.034;15.394;2022-12-07T09:12:19;74.03;;;17.80;;
1747;SDS011;871;47.034;15.394;2022-12-07T09:14:45;65.60;;;16.43;;
1747;SDS011;871;47.034;15.394;2022-12-07T09:17:11;67.30;;;17.17;;
1747;SDS011;871;47.034;15.394;2022-12-07T09:19:37;63.92;;;17.45;;
1747;SDS011;871;47.034;15.394;2022-12-07T09:22:04;65.85;;;17.40;;
1747;SDS011;871;47.034;15.394;2022-12-07T09:24:31;73.03;;;18.02;;
1747;SDS011;871;47.034;15.394;2022-12-07T09:26:57;65.80;;;17.20;;
1747;SDS011;871;47.034;15.394;2022-12-07T09:29:23;58.50;;;14.05;;
1747;SDS011;871;47.034;15.394;2022-12-07T09:31:50;56.65;;;15.10;;
1747;SDS011;871;47.034;15.394;2022-12-07T09:34:18;58.17;;;16.17;;
1747;SDS011;871;47.034;15.394;2022-12-07T09:36:45;60.35;;;14.38;;
1747;SDS011;871;47.034;15.394;2022-12-07T09:39:11;59.67;;;16.10;;
1747;SDS011;871;47.034;15.394;2022-12-07T09:41:38;65.22;;;16.27;;
1747;SDS011;871;47.034;15.394;2022-12-07T09:44:06;62.08;;;16.40;;
1747;SDS011;871;47.034;15.394;2022-12-07T09:46:34;58.72;;;15.18;;
1747;SDS011;871;47.034;15.394;2022-12-07T09:49:02;63.10;;;14.93;;
1747;SDS011;871;47.034;15.394;2022-12-07T09:51:28;61.92;;;15.57;;
1747;SDS011;871;47.034;15.394;2022-12-07T09:53:55;65.85;;;16.40;;
1747;SDS011;871;47.034;15.394;2022-12-07T09:56:22;57.20;;;14.38;;
1747;SDS011;871;47.034;15.394;2022-12-07T09:58:48;68.03;;;15.00;;
1747;SDS011;871;47.034;15.394;2022-12-07T10:01:16;62.22;;;16.52;;
1747;SDS011;871;47.034;15.394;2022-12-07T10:03:45;60.67;;;16.20;;
1747;SDS011;871;47.034;15.394;2022-12-07T10:06:13;64.75;;;17.08;;
1747;SDS011;871;47.034;15.394;2022-12-07T10:08:39;57.97;;;13.60;;
1747;SDS011;871;47.034;15.394;2022-12-07T10:11:08;54.75;;;10.77;;
1747;SDS011;871;47.034;15.394;2022-12-07T10:13:39;58.35;;;15.05;;
1747;SDS011;871;47.034;15.394;2022-12-07T10:18:45;59.38;;;15.82;;
1747;SDS011;871;47.034;15.394;2022-12-07T10:21:13;61.95;;;16.10;;
1747;SDS011;871;47.034;15.394;2022-12-07T10:24:24;68.55;;;16.75;;
1747;SDS011;871;47.034;15.394;2022-12-07T10:28:52;66.15;;;17.42;;
1747;SDS011;871;47.034;15.394;2022-12-07T10:31:19;63.65;;;15.43;;
1747;SDS011;871;47.034;15.394;2022-12-07T10:33:54;66.22;;;20.02;;
1747;SDS011;871;47.034;15.394;2022-12-07T10:36:23;58.33;;;16.45;;
1747;SDS011;871;47.034;15.394;2022-12-07T10:38:51;67.03;;;16.83;;
1747;SDS011;871;47.034;15.394;2022-12-07T10:41:17;64.80;;;18.58;;
1747;SDS011;871;47.034;15.394;2022-12-07T10:43:54;64.13;;;16.67;;
1747;SDS011;871;47.034;15.394;2022-12-07T10:46:25;68.18;;;19.90;;
1747;SDS011;871;47.034;15.394;2022-12-07T10:51:27;64.65;;;19.63;;
1747;SDS011;871;47.034;15.394;2022-12-07T11:06:36;63.97;;;19.98;;
1747;SDS011;871;47.034;15.394;2022-12-07T11:11:35;65.18;;;17.63;;
1747;SDS011;871;47.034;15.394;2022-12-07T11:14:11;62.63;;;16.10;;
1747;SDS011;871;47.034;15.394;2022-12-07T11:21:58;66.03;;;17.92;;
1747;SDS011;871;47.034;15.394;2022-12-07T11:24:27;62.95;;;16.15;;
1747;SDS011;871;47.034;15.394;2022-12-07T11:32:14;67.40;;;17.93;;
1747;SDS011;871;47.034;15.394;2022-12-07T11:34:51;59.87;;;16.03;;
1747;SDS011;871;47.034;15.394;2022-12-07T11:37:19;56.08;;;13.70;;
1747;SDS011;871;47.034;15.394;2022-12-07T11:39:51;69.07;;;17.17;;
1747;SDS011;871;47.034;15.394;2022-12-07T11:42:24;63.67;;;17.07;;
1747;SDS011;871;47.034;15.394;2022-12-07T11:47:20;67.72;;;17.40;;
1747;SDS011;871;47.034;15.394;2022-12-07T11:49:47;64.17;;;16.40;;
1747;SDS011;871;47.034;15.394;2022-12-07T11:52:27;58.33;;;14.75;;
1747;SDS011;871;47.034;15.394;2022-12-07T11:54:56;59.72;;;16.23;;
1747;SDS011;871;47.034;15.394;2022-12-07T11:57:28;63.17;;;15.85;;
1747;SDS011;871;47.034;15.394;2022-12-07T12:00:00;61.38;;;15.10;;
1747;SDS011;871;47.034;15.394;2022-12-07T12:02:31;62.85;;;17.80;;
1747;SDS011;871;47.034;15.394;2022-12-07T12:05:12;65.63;;;17.27;;
1747;SDS011;871;47.034;15.394;2022-12-07T12:07:39;62.20;;;17.58;;
1747;SDS011;871;47.034;15.394;2022-12-07T12:12:58;61.40;;;18.98;;
1747;SDS011;871;47.034;15.394;2022-12-07T12:15:37;67.32;;;17.73;;
1747;SDS011;871;47.034;15.394;2022-12-07T12:18:11;57.08;;;15.32;;
1747;SDS011;871;47.034;15.394;2022-12-07T12:20:44;65.50;;;18.53;;
1747;SDS011;871;47.034;15.394;2022-12-07T12:25:51;59.90;;;15.67;;
1747;SDS011;871;47.034;15.394;2022-12-07T12:28:29;66.23;;;17.60;;
1747;SDS011;871;47.034;15.394;2022-12-07T12:31:06;58.15;;;15.85;;
1747;SDS011;871;47.034;15.394;2022-12-07T12:33:33;60.40;;;16.05;;
1747;SDS011;871;47.034;15.394;2022-12-07T12:39:07;60.83;;;17.90;;
1747;SDS011;871;47.034;15.394;2022-12-07T12:47:04;57.57;;;15.30;;
1747;SDS011;871;47.034;15.394;2022-12-07T12:54:57;56.63;;;15.90;;
1747;SDS011;871;47.034;15.394;2022-12-07T12:57:26;60.90;;;15.23;;
1747;SDS011;871;47.034;15.394;2022-12-07T13:02:26;63.33;;;16.73;;
1747;SDS011;871;47.034;15.394;2022-12-07T13:04:57;69.40;;;16.73;;
1747;SDS011;871;47.034;15.394;2022-12-07T13:10:53;65.72;;;17.88;;
1747;SDS011;871;47.034;15.394;2022-12-07T13:20:48;57.78;;;17.60;;
1747;SDS011;871;47.034;15.394;2022-12-07T13:23:22;58.60;;;17.58;;
1747;SDS011;871;47.034;15.394;2022-12-07T13:26:00;62.00;;;16.50;;
1747;SDS011;871;47.034;15.394;2022-12-07T13:28:32;58.40;;;16.23;;
1747;SDS011;871;47.034;15.394;2022-12-07T13:31:13;57.70;;;17.15;;
1747;SDS011;871;47.034;15.394;2022-12-07T13:33:42;61.63;;;16.85;;
1747;SDS011;871;47.034;15.394;2022-12-07T13:36:12;58.92;;;17.23;;
1747;SDS011;871;47.034;15.394;2022-12-07T13:38:47;60.38;;;18.08;;
1747;SDS011;871;47.034;15.394;2022-12-07T13:41:15;58.67;;;16.77;;
1747;SDS011;871;47.034;15.394;2022-12-07T13:43:45;56.95;;;17.67;;
1747;SDS011;871;47.034;15.394;2022-12-07T13:46:12;60.38;;;18.58;;
1747;SDS011;871;47.034;15.394;2022-12-07T13:48:45;69.57;;;18.60;;
1747;SDS011;871;47.034;15.394;2022-12-07T13:53:46;57.88;;;18.25;;
1747;SDS011;871;47.034;15.394;2022-12-07T13:56:13;64.35;;;19.95;;
1747;SDS011;871;47.034;15.394;2022-12-07T13:58:41;62.50;;;19.02;;
1747;SDS011;871;47.034;15.394;2022-12-07T14:01:07;66.00;;;19.17;;
1747;SDS011;871;47.034;15.394;2022-12-07T14:03:34;60.83;;;18.48;;
1747;SDS011;871;47.034;15.394;2022-12-07T14:08:30;57.13;;;17.50;;
1747;SDS011;871;47.034;15.394;2022-12-07T14:10:57;59.35;;;16.67;;
1747;SDS011;871;47.034;15.394;2022-12-07T14:13:31;61.70;;;17.05;;
1747;SDS011;871;47.034;15.394;2022-12-07T14:15:59;57.15;;;16.65;;
1747;SDS011;871;47.034;15.394;2022-12-07T14:18:26;55.92;;;16.70;;
1747;SDS011;871;47.034;15.394;2022-12-07T14:21:06;55.40;;;15.93;;
1747;SDS011;871;47.034;15.394;2022-12-07T14:23:40;57.08;;;16.90;;
1747;SDS011;871;47.034;15.394;2022-12-07T14:26:19;65.63;;;18.50;;
1747;SDS011;871;47.034;15.394;2022-12-07T14:28:46;67.65;;;18.85;;
1747;SDS011;871;47.034;15.394;2022-12-07T14:31:21;59.17;;;17.85;;
1747;SDS011;871;47.034;15.394;2022-12-07T14:33:49;60.45;;;17.00;;
1747;SDS011;871;47.034;15.394;2022-12-07T14:36:15;62.33;;;17.67;;
1747;SDS011;871;47.034;15.394;2022-12-07T14:38:41;60.70;;;19.00;;
1747;SDS011;871;47.034;15.394;2022-12-07T14:41:16;56.83;;;16.30;;
1747;SDS011;871;47.034;15.394;2022-12-07T14:44:02;66.80;;;19.02;;
1747;SDS011;871;47.034;15.394;2022-12-07T14:46:28;59.33;;;16.08;;
1747;SDS011;871;47.034;15.394;2022-12-07T14:48:54;62.50;;;20.00;;
1747;SDS011;871;47.034;15.394;2022-12-07T14:51:20;73.17;;;20.90;;
1747;SDS011;871;47.034;15.394;2022-12-07T14:53:48;59.90;;;19.98;;
1747;SDS011;871;47.034;15.394;2022-12-07T14:56:14;66.10;;;20.20;;
1747;SDS011;871;47.034;15.394;2022-12-07T14:58:40;59.88;;;21.05;;
1747;SDS011;871;47.034;15.394;2022-12-07T15:01:06;58.72;;;18.35;;
1747;SDS011;871;47.034;15.394;2022-12-07T15:03:32;66.57;;;21.13;;
1747;SDS011;871;47.034;15.394;2022-12-07T15:05:59;63.08;;;17.67;;
1747;SDS011;871;47.034;15.394;2022-12-07T15:08:26;56.65;;;15.98;;
1747;SDS011;871;47.034;15.394;2022-12-07T15:10:52;61.50;;;18.30;;
1747;SDS011;871;47.034;15.394;2022-12-07T15:13:18;61.20;;;19.95;;
1747;SDS011;871;47.034;15.394;2022-12-07T15:16:03;63.75;;;21.38;;
1747;SDS011;871;47.034;15.394;2022-12-07T15:18:29;58.35;;;19.70;;
1747;SDS011;871;47.034;15.394;2022-12-07T15:20:55;71.28;;;20.48;;
1747;SDS011;871;47.034;15.394;2022-12-07T15:23:21;63.10;;;20.47;;
1747;SDS011;871;47.034;15.394;2022-12-07T15:25:48;62.72;;;22.45;;
1747;SDS011;871;47.034;15.394;2022-12-07T15:28:14;63.13;;;20.90;;
1747;SDS011;871;47.034;15.394;2022-12-07T15:30:41;67.00;;;23.10;;
1747;SDS011;871;47.034;15.394;2022-12-07T15:33:08;69.95;;;24.67;;
1747;SDS011;871;47.034;15.394;2022-12-07T15:35:38;68.70;;;24.00;;
1747;SDS011;871;47.034;15.394;2022-12-07T15:38:04;72.72;;;23.40;;
1747;SDS011;871;47.034;15.394;2022-12-07T15:40:30;66.40;;;22.40;;
1747;SDS011;871;47.034;15.394;2022-12-07T15:42:56;71.07;;;23.70;;
1747;SDS011;871;47.034;15.394;2022-12-07T15:45:22;69.47;;;22.52;;
1747;SDS011;871;47.034;15.394;2022-12-07T15:47:48;75.22;;;24.38;;
1747;SDS011;871;47.034;15.394;2022-12-07T15:50:15;57.05;;;16.52;;
1747;SDS011;871;47.034;15.394;2022-12-07T15:52:41;62.10;;;19.77;;
1747;SDS011;871;47.034;15.394;2022-12-07T15:55:08;67.65;;;24.58;;
1747;SDS011;871;47.034;15.394;2022-12-07T15:57:35;71.72;;;24.48;;
1747;SDS011;871;47.034;15.394;2022-12-07T16:00:02;68.68;;;24.90;;
1747;SDS011;871;47.034;15.394;2022-12-07T16:02:29;65.80;;;23.13;;
1747;SDS011;871;47.034;15.394;2022-12-07T16:04:55;66.90;;;22.80;;
1747;SDS011;871;47.034;15.394;2022-12-07T16:07:21;63.30;;;21.48;;
1747;SDS011;871;47.034;15.394;2022-12-07T16:09:47;61.08;;;20.83;;
1747;SDS011;871;47.034;15.394;2022-12-07T16:12:14;63.88;;;19.75;;
1747;SDS011;871;47.034;15.394;2022-12-07T16:14:40;58.80;;;17.40;;
1747;SDS011;871;47.034;15.394;2022-12-07T16:17:07;63.67;;;19.08;;
1747;SDS011;871;47.034;15.394;2022-12-07T16:19:34;60.33;;;19.27;;
1747;SDS011;871;47.034;15.394;2022-12-07T16:22:00;61.13;;;17.63;;
1747;SDS011;871;47.034;15.394;2022-12-07T16:24:26;60.72;;;19.52;;
1747;SDS011;871;47.034;15.394;2022-12-07T16:26:52;56.92;;;17.75;;
1747;SDS011;871;47.034;15.394;2022-12-07T16:29:20;57.60;;;17.50;;
1747;SDS011;871;47.034;15.394;2022-12-07T16:31:46;62.05;;;17.55;;
1747;SDS011;871;47.034;15.394;2022-12-07T16:34:13;53.97;;;17.23;;
1747;SDS011;871;47.034;15.394;2022-12-07T16:36:39;56.17;;;18.47;;
1747;SDS011;871;47.034;15.394;2022-12-07T16:39:05;60.60;;;16.90;;
1747;SDS011;871;47.034;15.394;2022-12-07T16:41:31;55.53;;;16.60;;
1747;SDS011;871;47.034;15.394;2022-12-07T16:44:00;57.28;;;15.98;;
1747;SDS011;871;47.034;15.394;2022-12-07T16:46:27;53.97;;;15.50;;
1747;SDS011;871;47.034;15.394;2022-12-07T16:48:53;56.08;;;16.25;;
1747;SDS011;871;47.034;15.394;2022-12-07T16:51:19;57.88;;;16.70;;
1747;SDS011;871;47.034;15.394;2022-12-07T16:53:47;53.77;;;16.37;;
1747;SDS011;871;47.034;15.394;2022-12-07T16:56:14;61.10;;;18.10;;
1747;SDS011;871;47.034;15.394;2022-12-07T16:58:41;57.05;;;17.33;;
1747;SDS011;871;47.034;15.394;2022-12-07T17:01:11;58.58;;;17.02;;
1747;SDS011;871;47.034;15.394;2022-12-07T17:03:38;56.20;;;16.30;;
1747;SDS011;871;47.034;15.394;2022-12-07T17:06:10;58.13;;;18.35;;
1747;SDS011;871;47.034;15.394;2022-12-07T17:08:37;55.65;;;16.05;;
1747;SDS011;871;47.034;15.394;2022-12-07T17:11:06;56.90;;;16.53;;
1747;SDS011;871;47.034;15.394;2022-12-07T17:13:34;58.03;;;17.25;;
1747;SDS011;871;47.034;15.394;2022-12-07T17:16:19;55.90;;;16.02;;
1747;SDS011;871;47.034;15.394;2022-12-07T17:18:45;59.15;;;16.25;;
1747;SDS011;871;47.034;15.394;2022-12-07T17:21:11;55.50;;;15.27;;
1747;SDS011;871;47.034;15.394;2022-12-07T17:23:37;60.38;;;17.90;;
1747;SDS011;871;47.034;15.394;2022-12-07T17:26:08;58.00;;;16.50;;
1747;SDS011;871;47.034;15.394;2022-12-07T17:28:35;57.67;;;16.73;;
1747;SDS011;871;47.034;15.394;2022-12-07T17:31:04;59.05;;;16.90;;
1747;SDS011;871;47.034;15.394;2022-12-07T17:33:31;54.78;;;15.50;;
1747;SDS011;871;47.034;15.394;2022-12-07T17:35:57;61.53;;;17.90;;
1747;SDS011;871;47.034;15.394;2022-12-07T17:38:23;58.60;;;18.47;;
1747;SDS011;871;47.034;15.394;2022-12-07T17:40:49;55.75;;;16.40;;
1747;SDS011;871;47.034;15.394;2022-12-07T17:43:16;59.03;;;15.50;;
1747;SDS011;871;47.034;15.394;2022-12-07T17:45:42;54.77;;;17.77;;
1747;SDS011;871;47.034;15.394;2022-12-07T17:48:08;54.60;;;15.30;;
1747;SDS011;871;47.034;15.394;2022-12-07T17:50:34;55.90;;;14.00;;
1747;SDS011;871;47.034;15.394;2022-12-07T17:53:18;56.40;;;16.63;;
1747;SDS011;871;47.034;15.394;2022-12-07T17:55:45;58.33;;;17.70;;
1747;SDS011;871;47.034;15.394;2022-12-07T17:58:11;55.50;;;14.60;;
1747;SDS011;871;47.034;15.394;2022-12-07T18:00:37;54.03;;;17.90;;
1747;SDS011;871;47.034;15.394;2022-12-07T18:03:05;56.95;;;17.17;;
1747;SDS011;871;47.034;15.394;2022-12-07T18:05:33;62.15;;;18.75;;
1747;SDS011;871;47.034;15.394;2022-12-07T18:07:59;57.38;;;17.67;;
1747;SDS011;871;47.034;15.394;2022-12-07T18:10:25;63.35;;;17.70;;
1747;SDS011;871;47.034;15.394;2022-12-07T18:12:51;57.10;;;17.10;;
1747;SDS011;871;47.034;15.394;2022-12-07T18:15:38;48.50;;;11.95;;
1747;SDS011;871;47.034;15.394;2022-12-07T18:18:04;57.03;;;16.95;;
1747;SDS011;871;47.034;15.394;2022-12-07T18:20:30;54.10;;;15.95;;
1747;SDS011;871;47.034;15.394;2022-12-07T18:22:56;58.30;;;16.25;;
1747;SDS011;871;47.034;15.394;2022-12-07T18:25:22;59.88;;;17.40;;
1747;SDS011;871;47.034;15.394;2022-12-07T18:27:49;55.83;;;16.27;;
1747;SDS011;871;47.034;15.394;2022-12-07T18:30:16;54.80;;;16.45;;
1747;SDS011;871;47.034;15.394;2022-12-07T18:32:42;59.08;;;16.50;;
1747;SDS011;871;47.034;15.394;2022-12-07T18:35:08;56.63;;;16.25;;
1747;SDS011;871;47.034;15.394;2022-12-07T18:37:34;60.60;;;17.93;;
1747;SDS011;871;47.034;15.394;2022-12-07T18:40:01;57.85;;;16.02;;
1747;SDS011;871;47.034;15.394;2022-12-07T18:42:27;60.72;;;16.38;;
1747;SDS011;871;47.034;15.394;2022-12-07T18:44:53;60.90;;;16.70;;
1747;SDS011;871;47.034;15.394;2022-12-07T18:47:20;61.33;;;16.25;;
1747;SDS011;871;47.034;15.394;2022-12-07T18:49:46;58.83;;;18.20;;
1747;SDS011;871;47.034;15.394;2022-12-07T18:52:12;66.05;;;20.08;;
1747;SDS011;871;47.034;15.394;2022-12-07T18:54:38;67.43;;;19.00;;
1747;SDS011;871;47.034;15.394;2022-12-07T18:57:04;62.92;;;19.88;;
1747;SDS011;871;47.034;15.394;2022-12-07T18:59:30;64.15;;;16.95;;
1747;SDS011;871;47.034;15.394;2022-12-07T19:02:13;56.70;;;17.60;;
1747;SDS011;871;47.034;15.394;2022-12-07T19:04:40;62.85;;;17.23;;
1747;SDS011;871;47.034;15.394;2022-12-07T19:07:07;58.13;;;16.45;;
1747;SDS011;871;47.034;15.394;2022-12-07T19:09:34;61.25;;;17.88;;
1747;SDS011;871;47.034;15.394;2022-12-07T19:12:00;61.42;;;17.45;;
1747;SDS011;871;47.034;15.394;2022-12-07T19:14:32;59.42;;;17.02;;
1747;SDS011;871;47.034;15.394;2022-12-07T19:17:01;60.00;;;18.13;;
1747;SDS011;871;47.034;15.394;2022-12-07T19:19:28;54.50;;;15.55;;
1747;SDS011;871;47.034;15.394;2022-12-07T19:21:55;60.38;;;18.73;;
1747;SDS011;871;47.034;15.394;2022-12-07T19:24:21;60.05;;;17.45;;
1747;SDS011;871;47.034;15.394;2022-12-07T19:26:47;59.70;;;18.15;;
1747;SDS011;871;47.034;15.394;2022-12-07T19:29:13;58.15;;;16.30;;
1747;SDS011;871;47.034;15.394;2022-12-07T19:31:39;64.07;;;20.00;;
1747;SDS011;871;47.034;15.394;2022-12-07T19:34:06;63.65;;;18.35;;
1747;SDS011;871;47.034;15.394;2022-12-07T19:36:33;66.97;;;20.75;;
1747;SDS011;871;47.034;15.394;2022-12-07T19:38:59;56.40;;;18.48;;
1747;SDS011;871;47.034;15.394;2022-12-07T19:41:26;59.30;;;18.25;;
1747;SDS011;871;47.034;15.394;2022-12-07T19:44:03;56.58;;;18.20;;
1747;SDS011;871;47.034;15.394;2022-12-07T19:46:31;64.38;;;19.40;;
1747;SDS011;871;47.034;15.394;2022-12-07T19:48:57;61.65;;;19.25;;
1747;SDS011;871;47.034;15.394;2022-12-07T19:51:24;68.18;;;21.00;;
1747;SDS011;871;47.034;15.394;2022-12-07T19:53:51;62.03;;;19.42;;
1747;SDS011;871;47.034;15.394;2022-12-07T19:56:18;65.30;;;19.05;;
1747;SDS011;871;47.034;15.394;2022-12-07T19:58:44;62.45;;;19.25;;
1747;SDS011;871;47.034;15.394;2022-12-07T20:01:12;64.88;;;21.55;;
1747;SDS011;871;47.034;15.394;2022-12-07T20:03:40;67.60;;;22.77;;
1747;SDS011;871;47.034;15.394;2022-12-07T20:06:10;66.63;;;22.20;;
1747;SDS011;871;47.034;15.394;2022-12-07T20:08:37;67.43;;;19.35;;
1747;SDS011;871;47.034;15.394;2022-12-07T20:11:03;65.60;;;22.42;;
1747;SDS011;871;47.034;15.394;2022-12-07T20:13:50;64.75;;;18.65;;
1747;SDS011;871;47.034;15.394;2022-12-07T20:16:18;64.30;;;20.92;;
1747;SDS011;871;47.034;15.394;2022-12-07T20:18:44;63.20;;;18.30;;
1747;SDS011;871;47.034;15.394;2022-12-07T20:21:11;62.63;;;20.75;;
1747;SDS011;871;47.034;15.394;2022-12-07T20:23:38;59.95;;;16.83;;
1747;SDS011;871;47.034;15.394;2022-12-07T20:26:06;69.65;;;19.95;;
1747;SDS011;871;47.034;15.394;2022-12-07T20:28:33;68.50;;;19.30;;
1747;SDS011;871;47.034;15.394;2022-12-07T20:31:02;62.63;;;19.50;;
1747;SDS011;871;47.034;15.394;2022-12-07T20:33:29;77.05;;;22.58;;
1747;SDS011;871;47.034;15.394;2022-12-07T20:35:58;69.63;;;20.33;;
1747;SDS011;871;47.034;15.394;2022-12-07T20:38:24;69.85;;;20.20;;
1747;SDS011;871;47.034;15.394;2022-12-07T20:40:51;55.42;;;15.57;;
1747;SDS011;871;47.034;15.394;2022-12-07T20:43:17;67.32;;;22.55;;
1747;SDS011;871;47.034;15.394;2022-12-07T20:45:47;68.80;;;20.77;;
1747;SDS011;871;47.034;15.394;2022-12-07T20:48:14;67.65;;;20.15;;
1747;SDS011;871;47.034;15.394;2022-12-07T20:50:41;68.40;;;20.55;;
1747;SDS011;871;47.034;15.394;2022-12-07T20:53:07;64.70;;;19.20;;
1747;SDS011;871;47.034;15.394;2022-12-07T20:55:34;67.65;;;18.75;;
1747;SDS011;871;47.034;15.394;2022-12-07T20:58:00;74.53;;;21.23;;
1747;SDS011;871;47.034;15.394;2022-12-07T21:00:26;66.00;;;20.45;;
1747;SDS011;871;47.034;15.394;2022-12-07T21:02:53;60.15;;;17.75;;
1747;SDS011;871;47.034;15.394;2022-12-07T21:05:22;59.63;;;17.75;;
1747;SDS011;871;47.034;15.394;2022-12-07T21:07:49;68.53;;;21.27;;